createdAt,value
2023-02-11T00:00:25.147Z,-2.70
2023-02-11T00:01:25.147Z,-2.69
2023-02-11T00:02:25.154Z,-2.66
2023-02-11T00:03:25.132Z,-2.65
2023-02-11T00:04:25.110Z,-2.65
2023-02-11T00:05:25.104Z,-2.66
2023-02-11T00:06:25.084Z,-2.69
2023-02-11T00:07:25.063Z,-2.68
2023-02-11T00:08:25.036Z,-2.67
2023-02-11T00:09:25.025Z,-2.67
2023-02-11T00:10:25.014Z,-2.67
2023-02-11T00:11:25.004Z,-2.66
2023-02-11T00:12:24.988Z,-2.62
2023-02-11T00:13:25.019Z,-2.62
2023-02-11T00:14:24.955Z,-2.61
2023-02-11T00:15:24.976Z,-2.61
2023-02-11T00:16:24.953Z,-2.63
2023-02-11T00:17:24.921Z,-2.64
2023-02-11T00:18:24.924Z,-2.62
2023-02-11T00:19:24.905Z,-2.61
2023-02-11T00:20:24.886Z,-2.62
2023-02-11T00:21:24.881Z,-2.65
2023-02-11T00:22:24.848Z,-2.66
2023-02-11T00:23:24.841Z,-2.70
2023-02-11T00:24:24.834Z,-2.72
2023-02-11T00:25:24.844Z,-2.73
2023-02-11T00:26:24.820Z,-2.72
2023-02-11T00:27:24.782Z,-2.73
2023-02-11T00:28:24.832Z,-2.73
2023-02-11T00:29:24.756Z,-2.72
2023-02-11T00:30:24.775Z,-2.75
2023-02-11T00:31:25.037Z,-2.80
2023-02-11T00:32:24.725Z,-2.84
2023-02-11T00:33:24.762Z,-2.88
2023-02-11T00:34:24.699Z,-2.91
2023-02-11T00:35:24.699Z,-2.92
2023-02-11T00:36:24.688Z,-2.94
2023-02-11T00:37:24.670Z,-2.95
2023-02-11T00:38:24.648Z,-2.96
2023-02-11T00:39:24.667Z,-2.96
2023-02-11T00:40:24.625Z,-2.97
2023-02-11T00:41:24.610Z,-2.96
2023-02-11T00:42:24.595Z,-2.95
2023-02-11T00:43:24.606Z,-2.94
2023-02-11T00:44:24.564Z,-2.92
2023-02-11T00:45:24.570Z,-2.91
2023-02-11T00:46:24.685Z,-2.89
2023-02-11T00:47:24.553Z,-2.89
2023-02-11T00:48:24.514Z,-2.91
2023-02-11T00:49:24.526Z,-2.92
2023-02-11T00:50:24.494Z,-2.94
2023-02-11T00:51:24.497Z,-2.96
2023-02-11T00:52:24.462Z,-2.96
2023-02-11T00:53:24.462Z,-2.98
2023-02-11T00:54:24.440Z,-2.99
2023-02-11T00:55:24.455Z,-3.01
2023-02-11T00:56:24.418Z,-3.02
2023-02-11T00:57:24.399Z,-3.01
2023-02-11T00:58:24.409Z,-2.99
2023-02-11T00:59:24.370Z,-2.98
2023-02-11T01:00:24.369Z,-2.99
2023-02-11T01:01:24.439Z,-2.98
2023-02-11T01:02:24.345Z,-3.00
2023-02-11T01:03:24.341Z,-3.04
2023-02-11T01:04:24.304Z,-3.04
2023-02-11T01:05:24.338Z,-3.05
2023-02-11T01:06:24.288Z,-3.06
2023-02-11T01:07:24.297Z,-3.07
2023-02-11T01:08:24.286Z,-3.06
2023-02-11T01:09:24.259Z,-3.07
2023-02-11T01:10:24.244Z,-3.08
2023-02-11T01:11:24.233Z,-3.07
2023-02-11T01:12:24.242Z,-3.08
2023-02-11T01:13:24.237Z,-3.08
2023-02-11T01:14:24.197Z,-3.11
2023-02-11T01:15:24.191Z,-3.16
2023-02-11T01:16:24.242Z,-3.17
2023-02-11T01:17:24.154Z,-3.20
2023-02-11T01:18:24.206Z,-3.22
2023-02-11T01:19:24.154Z,-3.23
2023-02-11T01:20:24.152Z,-3.23
2023-02-11T01:21:24.101Z,-3.25
2023-02-11T01:22:24.120Z,-3.27
2023-02-11T01:23:24.105Z,-3.27
2023-02-11T01:24:24.064Z,-3.26
2023-02-11T01:25:24.111Z,-3.28
2023-02-11T01:26:24.085Z,-3.29
2023-02-11T01:27:24.026Z,-3.29
2023-02-11T01:28:24.098Z,-3.29
2023-02-11T01:29:23.996Z,-3.32
2023-02-11T01:30:24.000Z,-3.36
2023-02-11T01:31:24.049Z,-3.40
2023-02-11T01:32:23.961Z,-3.44
2023-02-11T01:33:23.959Z,-3.47
2023-02-11T01:34:23.940Z,-3.50
2023-02-11T01:35:23.921Z,-3.50
2023-02-11T01:36:23.922Z,-3.50
2023-02-11T01:37:23.913Z,-3.51
2023-02-11T01:38:23.886Z,-3.51
2023-02-11T01:39:23.873Z,-3.51
2023-02-11T01:40:23.859Z,-3.51
2023-02-11T01:41:23.861Z,-3.51
2023-02-11T01:42:23.842Z,-3.53
2023-02-11T01:43:23.842Z,-3.56
2023-02-11T01:44:23.823Z,-3.59
2023-02-11T01:45:23.797Z,-3.62
2023-02-11T01:46:23.825Z,-3.65
2023-02-11T01:47:23.772Z,-3.66
2023-02-11T01:48:23.757Z,-3.65
2023-02-11T01:49:23.786Z,-3.63
2023-02-11T01:50:23.736Z,-3.61
2023-02-11T01:51:23.717Z,-3.61
2023-02-11T01:52:23.749Z,-3.62
2023-02-11T01:53:23.695Z,-3.65
2023-02-11T01:54:23.685Z,-3.67
2023-02-11T01:55:23.687Z,-3.69
2023-02-11T01:56:23.666Z,-3.69
2023-02-11T01:57:23.641Z,-3.68
2023-02-11T01:58:23.634Z,-3.68
2023-02-11T01:59:23.618Z,-3.69
2023-02-11T02:00:23.607Z,-3.70
2023-02-11T02:01:23.613Z,-3.73
2023-02-11T02:02:23.586Z,-3.75
2023-02-11T02:03:23.590Z,-3.77
2023-02-11T02:04:23.562Z,-3.79
2023-02-11T02:05:23.547Z,-3.81
2023-02-11T02:06:23.547Z,-3.81
2023-02-11T02:07:23.533Z,-3.81
2023-02-11T02:08:23.498Z,-3.82
2023-02-11T02:09:23.505Z,-3.84
2023-02-11T02:10:23.473Z,-3.85
2023-02-11T02:11:23.467Z,-3.87
2023-02-11T02:12:23.454Z,-3.89
2023-02-11T02:13:23.461Z,-3.91
2023-02-11T02:14:23.431Z,-3.91
2023-02-11T02:15:23.426Z,-3.92
2023-02-11T02:16:23.480Z,-3.93
2023-02-11T02:17:23.398Z,-3.93
2023-02-11T02:18:23.367Z,-3.92
2023-02-11T02:19:23.380Z,-3.92
2023-02-11T02:20:23.347Z,-3.92
2023-02-11T02:21:23.348Z,-3.91
2023-02-11T02:22:23.332Z,-3.91
2023-02-11T02:23:23.309Z,-3.90
2023-02-11T02:24:23.299Z,-3.88
2023-02-11T02:25:23.322Z,-3.88
2023-02-11T02:26:23.280Z,-3.90
2023-02-11T02:27:23.246Z,-3.92
2023-02-11T02:28:23.313Z,-3.92
2023-02-11T02:29:23.232Z,-3.91
2023-02-11T02:30:23.258Z,-3.91
2023-02-11T02:31:23.259Z,-3.89
2023-02-11T02:32:23.199Z,-3.91
2023-02-11T02:33:23.343Z,-3.93
2023-02-11T02:34:23.174Z,-3.97
2023-02-11T02:35:23.146Z,-3.99
2023-02-11T02:36:23.142Z,-4.00
2023-02-11T02:37:23.139Z,-4.01
2023-02-11T02:38:23.121Z,-4.01
2023-02-11T02:39:23.104Z,-4.01
2023-02-11T02:40:23.093Z,-3.99
2023-02-11T02:41:23.072Z,-3.99
2023-02-11T02:42:23.075Z,-4.01
2023-02-11T02:43:23.084Z,-4.02
2023-02-11T02:44:23.034Z,-4.02
2023-02-11T02:45:23.049Z,-4.01
2023-02-11T02:46:23.046Z,-4.00
2023-02-11T02:47:23.003Z,-3.97
2023-02-11T02:48:22.981Z,-3.94
2023-02-11T02:49:22.993Z,-3.96
2023-02-11T02:50:22.954Z,-3.96
2023-02-11T02:51:22.953Z,-3.97
2023-02-11T02:52:22.938Z,-3.97
2023-02-11T02:53:22.932Z,-3.96
2023-02-11T02:54:22.911Z,-3.94
2023-02-11T02:55:22.951Z,-3.94
2023-02-11T02:56:22.883Z,-3.93
2023-02-11T02:57:22.877Z,-3.94
2023-02-11T02:58:22.876Z,-3.92
2023-02-11T02:59:22.854Z,-3.91
2023-02-11T03:00:22.839Z,-3.92
2023-02-11T03:01:22.831Z,-3.91
2023-02-11T03:02:22.817Z,-3.92
2023-02-11T03:03:22.875Z,-3.92
2023-02-11T03:04:22.809Z,-3.91
2023-02-11T03:05:22.784Z,-3.89
2023-02-11T03:06:22.760Z,-3.86
2023-02-11T03:07:22.779Z,-3.84
2023-02-11T03:08:22.769Z,-3.81
2023-02-11T03:09:22.718Z,-3.69
2023-02-11T03:10:22.706Z,-3.45
2023-02-11T03:11:22.695Z,-3.27
2023-02-11T03:12:22.693Z,-3.21
2023-02-11T03:13:22.690Z,-3.20
2023-02-11T03:14:22.662Z,-3.21
2023-02-11T03:15:22.650Z,-3.25
2023-02-11T03:16:22.732Z,-3.28
2023-02-11T03:17:22.644Z,-3.32
2023-02-11T03:18:22.626Z,-3.34
2023-02-11T03:19:22.620Z,-3.35
2023-02-11T03:20:22.584Z,-3.34
2023-02-11T03:21:22.570Z,-3.29
2023-02-11T03:22:22.568Z,-3.20
2023-02-11T03:23:22.556Z,-3.15
2023-02-11T03:24:22.544Z,-3.07
2023-02-11T03:25:22.540Z,-3.06
2023-02-11T03:26:22.497Z,-3.03
2023-02-11T03:27:22.504Z,-2.86
2023-02-11T03:28:22.531Z,-2.69
2023-02-11T03:29:22.486Z,-2.44
2023-02-11T03:30:22.456Z,-2.15
2023-02-11T03:31:22.582Z,-1.92
2023-02-11T03:32:22.436Z,-1.69
2023-02-11T03:33:22.423Z,-1.47
2023-02-11T03:34:22.397Z,-1.26
2023-02-11T03:35:22.404Z,-1.17
2023-02-11T03:36:22.378Z,-1.17
2023-02-11T03:37:22.384Z,-1.08
2023-02-11T03:38:22.365Z,-0.92
2023-02-11T03:39:22.332Z,-0.75
2023-02-11T03:40:22.344Z,-0.59
2023-02-11T03:41:22.315Z,-0.44
2023-02-11T03:42:22.304Z,-0.29
2023-02-11T03:43:22.315Z,-0.14
2023-02-11T03:44:22.292Z,0.01
2023-02-11T03:45:22.259Z,0.14
2023-02-11T03:46:22.302Z,0.26
2023-02-11T03:47:22.241Z,0.37
2023-02-11T03:48:22.239Z,0.44
2023-02-11T03:49:22.245Z,0.49
2023-02-11T03:50:22.204Z,0.48
2023-02-11T03:51:22.184Z,0.39
2023-02-11T03:52:22.193Z,0.21
2023-02-11T03:53:22.160Z,0.01
2023-02-11T03:54:22.142Z,-0.21
2023-02-11T03:55:22.143Z,-0.45
2023-02-11T03:56:22.124Z,-0.66
2023-02-11T03:57:22.104Z,-0.82
2023-02-11T03:58:22.091Z,-0.99
2023-02-11T03:59:22.092Z,-1.16
2023-02-11T04:00:22.075Z,-1.36
2023-02-11T04:01:22.101Z,-1.53
2023-02-11T04:02:22.044Z,-1.70
2023-02-11T04:03:22.098Z,-1.87
2023-02-11T04:04:22.016Z,-2.01
2023-02-11T04:05:22.003Z,-2.13
2023-02-11T04:06:21.991Z,-2.24
2023-02-11T04:07:21.998Z,-2.32
2023-02-11T04:08:21.972Z,-2.41
2023-02-11T04:09:21.951Z,-2.47
2023-02-11T04:10:21.939Z,-2.50
2023-02-11T04:11:21.926Z,-2.52
2023-02-11T04:12:21.925Z,-2.55
2023-02-11T04:13:21.915Z,-2.57
2023-02-11T04:14:21.891Z,-2.59
2023-02-11T04:15:21.885Z,-2.62
2023-02-11T04:16:21.922Z,-2.65
2023-02-11T04:17:21.849Z,-2.70
2023-02-11T04:18:21.841Z,-2.74
2023-02-11T04:19:21.838Z,-2.77
2023-02-11T04:20:21.821Z,-2.79
2023-02-11T04:21:21.801Z,-2.81
2023-02-11T04:22:21.794Z,-2.80
2023-02-11T04:23:21.785Z,-2.77
2023-02-11T04:24:21.770Z,-2.74
2023-02-11T04:25:21.785Z,-2.76
2023-02-11T04:26:21.734Z,-2.79
2023-02-11T04:27:21.721Z,-2.83
2023-02-11T04:28:21.813Z,-2.86
2023-02-11T04:29:21.698Z,-2.89
2023-02-11T04:30:21.688Z,-2.91
2023-02-11T04:31:21.826Z,-2.92
2023-02-11T04:32:21.670Z,-2.95
2023-02-11T04:33:21.665Z,-2.97
2023-02-11T04:34:21.630Z,-2.99
2023-02-11T04:35:21.625Z,-3.03
2023-02-11T04:36:21.605Z,-3.06
2023-02-11T04:37:21.609Z,-3.08
2023-02-11T04:38:21.584Z,-3.10
2023-02-11T04:39:21.576Z,-3.12
2023-02-11T04:40:21.573Z,-3.13
2023-02-11T04:41:21.546Z,-3.14
2023-02-11T04:42:21.540Z,-3.12
2023-02-11T04:43:21.553Z,-3.09
2023-02-11T04:44:21.503Z,-3.07
2023-02-11T04:45:21.502Z,-3.09
2023-02-11T04:46:21.554Z,-3.15
2023-02-11T04:47:21.484Z,-3.22
2023-02-11T04:48:21.465Z,-3.25
2023-02-11T04:49:21.472Z,-3.26
2023-02-11T04:50:21.451Z,-3.27
2023-02-11T04:51:21.425Z,-3.28
2023-02-11T04:52:21.406Z,-3.31
2023-02-11T04:53:21.392Z,-3.35
2023-02-11T04:54:21.374Z,-3.39
2023-02-11T04:55:21.389Z,-3.43
2023-02-11T04:56:21.351Z,-3.46
2023-02-11T04:57:21.351Z,-3.50
2023-02-11T04:58:21.327Z,-3.54
2023-02-11T04:59:21.317Z,-3.58
2023-02-11T05:00:21.312Z,-3.60
2023-02-11T05:01:21.386Z,-3.61
2023-02-11T05:02:21.282Z,-3.62
2023-02-11T05:03:21.269Z,-3.59
2023-02-11T05:04:21.292Z,-3.56
2023-02-11T05:05:21.250Z,-3.58
2023-02-11T05:06:21.220Z,-3.59
2023-02-11T05:07:21.221Z,-3.61
2023-02-11T05:08:21.191Z,-3.58
2023-02-11T05:09:21.181Z,-3.55
2023-02-11T05:10:21.176Z,-3.53
2023-02-11T05:11:21.158Z,-3.48
2023-02-11T05:12:21.153Z,-3.41
2023-02-11T05:13:21.159Z,-3.37
2023-02-11T05:14:21.136Z,-3.32
2023-02-11T05:15:21.116Z,-3.27
2023-02-11T05:16:21.145Z,-3.21
2023-02-11T05:17:21.088Z,-3.17
2023-02-11T05:18:21.078Z,-3.14
2023-02-11T05:19:21.078Z,-3.10
2023-02-11T05:20:21.050Z,-3.10
2023-02-11T05:21:21.053Z,-3.09
2023-02-11T05:22:21.017Z,-3.06
2023-02-11T05:23:21.013Z,-3.04
2023-02-11T05:24:20.991Z,-3.01
2023-02-11T05:25:21.007Z,-2.96
2023-02-11T05:26:20.968Z,-2.90
2023-02-11T05:27:20.979Z,-2.83
2023-02-11T05:28:20.967Z,-2.76
2023-02-11T05:29:20.951Z,-2.73
2023-02-11T05:30:20.927Z,-2.67
2023-02-11T05:31:20.939Z,-2.65
2023-02-11T05:32:20.891Z,-2.65
2023-02-11T05:33:20.885Z,-2.66
2023-02-11T05:34:20.876Z,-2.67
2023-02-11T05:35:20.865Z,-2.69
2023-02-11T05:36:20.844Z,-2.70
2023-02-11T05:37:20.878Z,-2.70
2023-02-11T05:38:20.813Z,-2.67
2023-02-11T05:39:20.794Z,-2.65
2023-02-11T05:40:20.795Z,-2.59
2023-02-11T05:41:20.779Z,-2.54
2023-02-11T05:42:20.764Z,-2.53
2023-02-11T05:43:20.769Z,-2.52
2023-02-11T05:44:20.747Z,-2.51
2023-02-11T05:45:20.725Z,-2.54
2023-02-11T05:46:20.779Z,-2.59
2023-02-11T05:47:20.704Z,-2.62
2023-02-11T05:48:20.701Z,-2.63
2023-02-11T05:49:20.701Z,-2.65
2023-02-11T05:50:20.672Z,-2.65
2023-02-11T05:51:20.658Z,-2.65
2023-02-11T05:52:20.642Z,-2.64
2023-02-11T05:53:20.639Z,-2.64
2023-02-11T05:54:20.617Z,-2.66
2023-02-11T05:55:20.619Z,-2.60
2023-02-11T05:56:20.591Z,-2.52
2023-02-11T05:57:20.597Z,-2.48
2023-02-11T05:58:20.564Z,-2.49
2023-02-11T05:59:20.540Z,-2.50
2023-02-11T06:00:20.537Z,-2.51
2023-02-11T06:01:20.529Z,-2.53
2023-02-11T06:02:20.534Z,-2.49
2023-02-11T06:03:20.517Z,-2.48
2023-02-11T06:04:20.494Z,-2.43
2023-02-11T06:05:20.476Z,-2.38
2023-02-11T06:06:20.470Z,-2.28
2023-02-11T06:07:20.475Z,-2.20
2023-02-11T06:08:20.446Z,-2.13
2023-02-11T06:09:20.427Z,-2.10
2023-02-11T06:10:20.411Z,-2.15
2023-02-11T06:11:20.416Z,-2.20
2023-02-11T06:12:20.394Z,-2.22
2023-02-11T06:13:20.398Z,-2.22
2023-02-11T06:14:20.393Z,-2.23
2023-02-11T06:15:20.345Z,-2.27
2023-02-11T06:16:20.376Z,-2.31
2023-02-11T06:17:20.321Z,-2.31
2023-02-11T06:18:20.309Z,-2.30
2023-02-11T06:19:20.322Z,-2.32
2023-02-11T06:20:20.290Z,-2.36
2023-02-11T06:21:20.268Z,-2.40
2023-02-11T06:22:20.249Z,-2.45
2023-02-11T06:23:20.248Z,-2.48
2023-02-11T06:24:38.464Z,-2.51
2023-02-11T06:25:21.257Z,-2.53
2023-02-11T06:26:20.221Z,-2.54
2023-02-11T06:27:20.203Z,-2.54
2023-02-11T06:28:20.212Z,-2.55
2023-02-11T06:29:20.176Z,-2.55
2023-02-11T06:30:20.159Z,-2.57
2023-02-11T06:31:20.328Z,-2.57
2023-02-11T06:32:39.557Z,-2.58
2023-02-11T06:33:21.124Z,-2.60
2023-02-11T06:34:20.114Z,-2.60
2023-02-11T06:35:20.101Z,-2.59
2023-02-11T06:36:20.095Z,-2.58
2023-02-11T06:37:20.096Z,-2.58
2023-02-11T06:38:20.056Z,-2.58
2023-02-11T06:39:20.099Z,-2.60
2023-02-11T06:40:20.024Z,-2.62
2023-02-11T06:41:20.020Z,-2.62
2023-02-11T06:42:20.021Z,-2.60
2023-02-11T06:43:20.019Z,-2.57
2023-02-11T06:44:19.976Z,-2.54
2023-02-11T06:45:19.972Z,-2.52
2023-02-11T06:46:20.019Z,-2.51
2023-02-11T06:47:19.983Z,-2.47
2023-02-11T06:48:19.923Z,-2.46
2023-02-11T06:49:19.940Z,-2.45
2023-02-11T06:50:19.903Z,-2.43
2023-02-11T06:51:19.888Z,-2.43
2023-02-11T06:52:19.900Z,-2.41
2023-02-11T06:53:19.879Z,-2.37
2023-02-11T06:54:19.850Z,-2.32
2023-02-11T06:55:20.013Z,-2.32
2023-02-11T06:56:19.848Z,-2.31
2023-02-11T06:57:19.833Z,-2.29
2023-02-11T06:58:19.802Z,-2.28
2023-02-11T06:59:19.792Z,-2.29
2023-02-11T07:00:19.778Z,-2.31
2023-02-11T07:01:20.199Z,-2.34
2023-02-11T07:02:20.997Z,-2.34
2023-02-11T07:03:19.815Z,-2.33
2023-02-11T07:04:19.746Z,-2.33
2023-02-11T07:05:19.726Z,-2.33
2023-02-11T07:06:19.734Z,-2.33
2023-02-11T07:07:19.714Z,-2.33
2023-02-11T07:08:19.687Z,-2.32
2023-02-11T07:09:19.659Z,-2.31
2023-02-11T07:10:19.659Z,-2.30
2023-02-11T07:11:19.655Z,-2.28
2023-02-11T07:12:19.637Z,-2.25
2023-02-11T07:13:19.645Z,-2.22
2023-02-11T07:14:19.647Z,-2.21
2023-02-11T07:15:19.582Z,-2.19
2023-02-11T07:16:20.015Z,-2.16
2023-02-11T07:17:19.571Z,-2.14
2023-02-11T07:18:19.591Z,-2.11
2023-02-11T07:19:19.548Z,-2.08
2023-02-11T07:20:19.548Z,-2.04
2023-02-11T07:21:19.508Z,-2.01
2023-02-11T07:22:19.561Z,-1.99
2023-02-11T07:23:19.515Z,-1.99
2023-02-11T07:24:19.509Z,-1.97
2023-02-11T07:25:19.475Z,-1.93
2023-02-11T07:26:19.503Z,-1.88
2023-02-11T07:27:19.426Z,-1.84
2023-02-11T07:28:19.498Z,-1.80
2023-02-11T07:29:19.403Z,-1.76
2023-02-11T07:30:19.429Z,-1.71
2023-02-11T07:31:19.531Z,-1.67
2023-02-11T07:32:19.461Z,-1.64
2023-02-11T07:33:19.439Z,-1.60
2023-02-11T07:34:19.435Z,-1.56
2023-02-11T07:35:19.337Z,-1.49
2023-02-11T07:36:19.381Z,-1.43
2023-02-11T07:37:19.319Z,-1.37
2023-02-11T07:38:19.348Z,-1.33
2023-02-11T07:39:19.285Z,-1.29
2023-02-11T07:40:19.304Z,-1.27
2023-02-11T07:41:19.275Z,-1.24
2023-02-11T07:42:19.281Z,-1.19
2023-02-11T07:43:19.247Z,-1.10
2023-02-11T07:44:19.248Z,-1.03
2023-02-11T07:45:19.207Z,-0.98
2023-02-11T07:46:19.253Z,-0.95
2023-02-11T07:47:19.183Z,-0.93
2023-02-11T07:48:19.232Z,-0.92
2023-02-11T07:49:19.159Z,-0.91
2023-02-11T07:50:19.146Z,-0.89
2023-02-11T07:51:19.124Z,-0.85
2023-02-11T07:52:19.114Z,-0.81
2023-02-11T07:53:19.128Z,-0.75
2023-02-11T07:54:19.098Z,-0.70
2023-02-11T07:55:19.109Z,-0.67
2023-02-11T07:56:19.065Z,-0.65
2023-02-11T07:57:19.823Z,-0.63
2023-02-11T07:58:19.037Z,-0.60
2023-02-11T07:59:19.021Z,-0.56
2023-02-11T08:00:21.110Z,-0.49
2023-02-11T08:01:19.114Z,-0.41
2023-02-11T08:02:19.064Z,-0.36
2023-02-11T08:03:19.020Z,-0.32
2023-02-11T08:04:18.977Z,-0.31
2023-02-11T08:05:18.961Z,-0.26
2023-02-11T08:06:18.929Z,-0.20
2023-02-11T08:07:18.948Z,-0.13
2023-02-11T08:08:18.921Z,-0.08
2023-02-11T08:09:18.888Z,-0.01
2023-02-11T08:10:18.918Z,0.06
2023-02-11T08:11:18.887Z,0.12
2023-02-11T08:12:24.116Z,0.17
2023-02-11T08:13:18.884Z,0.21
2023-02-11T08:14:18.878Z,0.26
2023-02-11T08:15:18.804Z,0.31
2023-02-11T08:16:33.643Z,0.37
2023-02-11T08:17:18.780Z,0.43
2023-02-11T08:18:18.788Z,0.48
2023-02-11T08:19:18.824Z,0.53
2023-02-11T08:20:18.899Z,0.57
2023-02-11T08:21:22.038Z,0.60
2023-02-11T08:22:18.743Z,0.63
2023-02-11T08:23:18.731Z,0.67
2023-02-11T08:24:18.723Z,0.71
2023-02-11T08:25:18.706Z,0.74
2023-02-11T08:26:18.677Z,0.75
2023-02-11T08:27:18.672Z,0.76
2023-02-11T08:28:18.718Z,0.78
2023-02-11T08:29:18.638Z,0.80
2023-02-11T08:30:18.648Z,0.82
2023-02-11T08:31:18.781Z,0.83
2023-02-11T08:32:18.650Z,0.85
2023-02-11T08:33:18.572Z,0.84
2023-02-11T08:34:18.570Z,0.85
2023-02-11T08:35:18.554Z,0.87
2023-02-11T08:36:18.613Z,0.92
2023-02-11T08:37:18.578Z,0.97
2023-02-11T08:38:18.525Z,1.02
2023-02-11T08:39:20.272Z,1.06
2023-02-11T08:40:18.477Z,1.08
2023-02-11T08:41:18.483Z,1.10
2023-02-11T08:42:18.465Z,1.11
2023-02-11T08:43:18.457Z,1.13
2023-02-11T08:44:18.500Z,1.13
2023-02-11T08:45:18.413Z,1.14
2023-02-11T08:46:18.459Z,1.15
2023-02-11T08:47:18.416Z,1.18
2023-02-11T08:48:18.387Z,1.20
2023-02-11T08:49:18.735Z,1.20
2023-02-11T08:50:18.506Z,1.21
2023-02-11T08:51:18.703Z,1.24
2023-02-11T08:52:18.436Z,1.27
2023-02-11T08:53:18.306Z,1.29
2023-02-11T08:54:18.305Z,1.31
2023-02-11T08:55:18.301Z,1.30
2023-02-11T08:56:18.429Z,1.26
2023-02-11T08:57:18.416Z,1.24
2023-02-11T08:58:19.261Z,1.23
2023-02-11T08:59:18.689Z,1.21
2023-02-11T09:00:18.217Z,1.18
2023-02-11T09:01:18.302Z,1.17
2023-02-11T09:02:18.262Z,1.15
2023-02-11T09:03:18.181Z,1.14
2023-02-11T09:04:18.184Z,1.13
2023-02-11T09:05:18.154Z,1.11
2023-02-11T09:06:18.165Z,1.11
2023-02-11T09:07:18.158Z,1.11
2023-02-11T09:08:18.122Z,1.11
2023-02-11T09:09:18.096Z,1.13
2023-02-11T09:10:18.096Z,1.18
2023-02-11T09:11:18.076Z,1.26
2023-02-11T09:12:18.084Z,1.36
2023-02-11T09:13:18.105Z,1.48
2023-02-11T09:14:18.031Z,1.60
2023-02-11T09:15:18.009Z,1.72
2023-02-11T09:16:18.431Z,1.83
2023-02-11T09:17:18.014Z,1.94
2023-02-11T09:18:17.975Z,2.06
2023-02-11T09:19:17.983Z,2.19
2023-02-11T09:20:17.947Z,2.34
2023-02-11T09:21:17.943Z,2.48
2023-02-11T09:22:18.063Z,2.61
2023-02-11T09:23:18.656Z,2.71
2023-02-11T09:24:18.106Z,2.80
2023-02-11T09:25:17.921Z,2.88
2023-02-11T09:26:17.872Z,2.96
2023-02-11T09:27:17.871Z,3.04
2023-02-11T09:28:17.879Z,3.14
2023-02-11T09:29:17.902Z,3.23
2023-02-11T09:30:17.825Z,3.30
2023-02-11T09:31:17.934Z,3.37
2023-02-11T09:32:17.922Z,3.46
2023-02-11T09:33:17.786Z,3.56
2023-02-11T09:34:17.792Z,3.66
2023-02-11T09:35:17.753Z,3.77
2023-02-11T09:36:17.746Z,3.86
2023-02-11T09:37:17.755Z,3.95
2023-02-11T09:38:17.745Z,4.04
2023-02-11T09:39:17.849Z,4.12
2023-02-11T09:40:17.680Z,4.20
2023-02-11T09:41:17.706Z,4.26
2023-02-11T09:42:17.667Z,4.32
2023-02-11T09:43:17.810Z,4.37
2023-02-11T09:44:17.691Z,4.41
2023-02-11T09:45:17.643Z,4.45
2023-02-11T09:46:17.745Z,4.47
2023-02-11T09:47:18.565Z,4.48
2023-02-11T09:48:17.648Z,4.49
2023-02-11T09:49:17.635Z,4.51
2023-02-11T09:50:17.559Z,4.55
2023-02-11T09:51:17.550Z,4.58
2023-02-11T09:52:18.668Z,4.60
2023-02-11T09:53:18.066Z,4.64
2023-02-11T09:54:17.530Z,4.68
2023-02-11T09:55:17.545Z,4.73
2023-02-11T09:56:17.524Z,4.76
2023-02-11T09:57:28.140Z,4.79
2023-02-11T09:58:18.494Z,4.82
2023-02-11T09:59:17.457Z,4.85
2023-02-11T10:00:17.454Z,4.88
2023-02-11T10:01:19.959Z,4.89
2023-02-11T10:02:17.432Z,4.91
2023-02-11T10:03:22.359Z,4.93
2023-02-11T10:04:17.414Z,4.96
2023-02-11T10:05:17.363Z,4.97
2023-02-11T10:06:17.375Z,4.97
2023-02-11T10:07:17.375Z,4.98
2023-02-11T10:08:17.334Z,5.01
2023-02-11T10:09:17.346Z,5.03
2023-02-11T10:10:17.306Z,5.05
2023-02-11T10:11:30.602Z,5.10
2023-02-11T10:12:18.645Z,5.16
2023-02-11T10:13:17.397Z,5.21
2023-02-11T10:14:17.337Z,5.27
2023-02-11T10:15:17.476Z,5.31
2023-02-11T10:16:17.272Z,5.36
2023-02-11T10:17:17.217Z,5.40
2023-02-11T10:18:17.239Z,5.44
2023-02-11T10:19:17.201Z,5.49
2023-02-11T10:20:17.334Z,5.53
2023-02-11T10:21:17.172Z,5.55
2023-02-11T10:22:17.171Z,5.59
2023-02-11T10:23:17.124Z,5.64
2023-02-11T10:24:17.157Z,5.67
2023-02-11T10:25:17.123Z,5.71
2023-02-11T10:26:17.093Z,5.76
2023-02-11T10:27:17.092Z,5.81
2023-02-11T10:28:17.148Z,5.85
2023-02-11T10:29:17.095Z,5.90
2023-02-11T10:30:17.052Z,5.97
2023-02-11T10:31:17.181Z,6.05
2023-02-11T10:32:17.013Z,6.15
2023-02-11T10:33:17.032Z,6.26
2023-02-11T10:34:17.019Z,6.37
2023-02-11T10:35:16.970Z,6.46
2023-02-11T10:36:16.963Z,6.56
2023-02-11T10:37:16.938Z,6.64
2023-02-11T10:38:16.929Z,6.71
2023-02-11T10:39:16.963Z,6.77
2023-02-11T10:40:16.921Z,6.82
2023-02-11T10:41:16.897Z,6.87
2023-02-11T10:42:16.894Z,6.93
2023-02-11T10:43:16.882Z,6.97
2023-02-11T10:44:16.881Z,7.01
2023-02-11T10:45:16.840Z,7.02
2023-02-11T10:46:16.902Z,7.04
2023-02-11T10:47:16.804Z,7.03
2023-02-11T10:48:16.827Z,7.04
2023-02-11T10:49:16.793Z,7.03
2023-02-11T10:50:16.803Z,7.03
2023-02-11T10:51:16.764Z,7.03
2023-02-11T10:52:16.758Z,7.03
2023-02-11T10:53:16.719Z,7.03
2023-02-11T10:54:16.747Z,7.03
2023-02-11T10:55:16.736Z,7.04
2023-02-11T10:56:16.694Z,7.03
2023-02-11T10:57:16.694Z,7.04
2023-02-11T10:58:16.671Z,7.06
2023-02-11T10:59:17.723Z,7.10
2023-02-11T11:00:16.690Z,7.12
2023-02-11T11:01:24.275Z,7.12
2023-02-11T11:02:17.643Z,7.12
2023-02-11T11:03:16.592Z,7.12
2023-02-11T11:04:16.645Z,7.12
2023-02-11T11:05:16.620Z,7.12
2023-02-11T11:06:16.568Z,7.12
2023-02-11T11:07:17.281Z,7.12
2023-02-11T11:08:16.532Z,7.15
2023-02-11T11:09:16.694Z,7.17
2023-02-11T11:10:16.530Z,7.20
2023-02-11T11:11:16.527Z,7.22
2023-02-11T11:12:16.598Z,7.24
2023-02-11T11:13:16.461Z,7.27
2023-02-11T11:14:16.467Z,7.32
2023-02-11T11:15:16.436Z,7.35
2023-02-11T11:16:16.539Z,7.39
2023-02-11T11:17:16.438Z,7.43
2023-02-11T11:18:22.512Z,7.46
2023-02-11T11:19:17.387Z,7.46
2023-02-11T11:20:16.402Z,7.46
2023-02-11T11:21:16.397Z,7.46
2023-02-11T11:22:16.348Z,7.47
2023-02-11T11:23:16.363Z,7.48
2023-02-11T11:24:16.337Z,7.50
2023-02-11T11:25:16.289Z,7.51
2023-02-11T11:26:16.319Z,7.53
2023-02-11T11:27:16.298Z,7.56
2023-02-11T11:28:16.279Z,7.58
2023-02-11T11:29:16.292Z,7.60
2023-02-11T11:30:16.273Z,7.62
2023-02-11T11:31:16.385Z,7.64
2023-02-11T11:32:17.795Z,7.65
2023-02-11T11:33:16.201Z,7.65
2023-02-11T11:34:16.214Z,7.66
2023-02-11T11:35:16.166Z,7.68
2023-02-11T11:36:16.234Z,7.70
2023-02-11T11:37:16.143Z,7.71
2023-02-11T11:38:16.135Z,7.71
2023-02-11T11:39:16.125Z,7.70
2023-02-11T11:40:16.148Z,7.69
2023-02-11T11:41:16.192Z,7.68
2023-02-11T11:42:16.080Z,7.68
2023-02-11T11:43:16.059Z,7.68
2023-02-11T11:44:16.098Z,7.67
2023-02-11T11:45:16.032Z,7.68
2023-02-11T11:46:16.032Z,7.69
2023-02-11T11:47:16.676Z,7.69
2023-02-11T11:48:15.996Z,7.68
2023-02-11T11:49:15.960Z,7.67
2023-02-11T11:50:16.038Z,7.66
2023-02-11T11:51:15.947Z,7.65
2023-02-11T11:52:15.958Z,7.65
2023-02-11T11:53:15.908Z,7.67
2023-02-11T11:54:15.920Z,7.68
2023-02-11T11:55:15.900Z,7.67
2023-02-11T11:56:15.876Z,7.67
2023-02-11T11:57:15.890Z,7.68
2023-02-11T11:58:15.855Z,7.69
2023-02-11T11:59:15.828Z,7.70
2023-02-11T12:00:15.844Z,7.70
2023-02-11T12:01:15.843Z,7.70
2023-02-11T12:02:15.862Z,7.72
2023-02-11T12:03:15.856Z,7.72
2023-02-11T12:04:15.793Z,7.72
2023-02-11T12:05:15.756Z,7.73
2023-02-11T12:06:15.756Z,7.74
2023-02-11T12:07:15.739Z,7.77
2023-02-11T12:08:15.726Z,7.79
2023-02-11T12:09:15.718Z,7.81
2023-02-11T12:10:15.685Z,7.83
2023-02-11T12:11:15.687Z,7.83
2023-02-11T12:12:15.693Z,7.82
2023-02-11T12:13:15.647Z,7.81
2023-02-11T12:14:15.660Z,7.79
2023-02-11T12:15:15.623Z,7.79
2023-02-11T12:16:15.645Z,7.78
2023-02-11T12:17:15.640Z,7.79
2023-02-11T12:18:15.599Z,7.81
2023-02-11T12:19:15.578Z,7.84
2023-02-11T12:20:15.557Z,7.87
2023-02-11T12:21:15.540Z,7.90
2023-02-11T12:22:15.527Z,7.92
2023-02-11T12:23:15.571Z,7.93
2023-02-11T12:24:17.337Z,7.94
2023-02-11T12:25:15.476Z,7.94
2023-02-11T12:26:15.477Z,7.92
2023-02-11T12:27:15.471Z,7.92
2023-02-11T12:28:15.496Z,7.92
2023-02-11T12:29:15.432Z,7.93
2023-02-11T12:30:15.444Z,7.94
2023-02-11T12:31:15.571Z,7.95
2023-02-11T12:32:15.528Z,7.95
2023-02-11T12:33:15.377Z,7.96
2023-02-11T12:34:15.425Z,7.95
2023-02-11T12:35:15.379Z,7.93
2023-02-11T12:36:15.376Z,7.91
2023-02-11T12:37:15.335Z,7.90
2023-02-11T12:38:15.311Z,7.91
2023-02-11T12:39:15.318Z,7.91
2023-02-11T12:40:15.302Z,7.89
2023-02-11T12:41:15.343Z,7.86
2023-02-11T12:42:15.300Z,7.83
2023-02-11T12:43:15.240Z,7.85
2023-02-11T12:44:15.246Z,7.84
2023-02-11T12:45:15.218Z,7.83
2023-02-11T12:46:15.282Z,7.82
2023-02-11T12:47:15.231Z,7.82
2023-02-11T12:48:15.190Z,7.81
2023-02-11T12:49:15.170Z,7.82
2023-02-11T12:50:15.172Z,7.81
2023-02-11T12:51:15.173Z,7.82
2023-02-11T12:52:15.161Z,7.80
2023-02-11T12:53:15.112Z,7.79
2023-02-11T12:54:15.150Z,7.79
2023-02-11T12:55:15.175Z,7.78
2023-02-11T12:56:15.124Z,7.79
2023-02-11T12:57:15.086Z,7.77
2023-02-11T12:58:15.055Z,7.75
2023-02-11T12:59:15.056Z,7.75
2023-02-11T13:00:16.036Z,7.74
2023-02-11T13:01:15.073Z,7.73
2023-02-11T13:02:15.054Z,7.73